Lawhon, Louisiana
Current Conditions -  °F | °C
As of 1:35 PM on Thursday 30 Oct 2014 (Local Time) from KMNE Reporting Station
Haze Haze  
Wind Chill: 72°   Ceiling: Unl
Heat Index: 72°   Visibility: 4mi
Dew Point: 43°   Wind: 0mph
Humidity: 35%   Direction: NA
Pressure: 30.13"   Gusts: NA
Location:  32.3153°N, 93.2953°W
Report Text: KMNE 301835Z AUTO 00000KT 4SM HZ CLR 22/06 A3013 RMK AO2
Loading
Personal Weather Stations






























Interactive Weather Map
Tropical Storm Tracking
New forecast layout! Learn more

10-Day Weather Forecast

Advertisements
Track Severe Weather on mobile